sensor_id;sensor_type;location;lat;lon;timestamp;P1;durP1;ratioP1;P2;durP2;ratioP2
66421;SDS011;53228;51.380;0.098;2022-08-01T00:01:13;4.65;;;2.80;;
66421;SDS011;53228;51.380;0.098;2022-08-01T00:03:42;8.68;;;3.60;;
66421;SDS011;53228;51.380;0.098;2022-08-01T00:06:09;5.15;;;3.53;;
66421;SDS011;53228;51.380;0.098;2022-08-01T00:08:37;3.53;;;2.60;;
66421;SDS011;53228;51.380;0.098;2022-08-01T00:11:05;2.72;;;2.20;;
66421;SDS011;53228;51.380;0.098;2022-08-01T00:13:33;2.72;;;2.20;;
66421;SDS011;53228;51.380;0.098;2022-08-01T00:16:01;3.10;;;2.42;;
66421;SDS011;53228;51.380;0.098;2022-08-01T00:18:29;3.55;;;2.60;;
66421;SDS011;53228;51.380;0.098;2022-08-01T00:20:56;3.05;;;2.10;;
66421;SDS011;53228;51.380;0.098;2022-08-01T00:23:24;2.40;;;2.00;;
66421;SDS011;53228;51.380;0.098;2022-08-01T00:25:51;2.75;;;2.22;;
66421;SDS011;53228;51.380;0.098;2022-08-01T00:28:19;3.17;;;2.22;;
66421;SDS011;53228;51.380;0.098;2022-08-01T00:30:47;4.03;;;2.50;;
66421;SDS011;53228;51.380;0.098;2022-08-01T00:33:15;2.35;;;1.90;;
66421;SDS011;53228;51.380;0.098;2022-08-01T00:35:43;3.97;;;2.00;;
66421;SDS011;53228;51.380;0.098;2022-08-01T00:38:11;3.38;;;1.90;;
66421;SDS011;53228;51.380;0.098;2022-08-01T00:40:38;2.47;;;1.92;;
66421;SDS011;53228;51.380;0.098;2022-08-01T00:43:06;2.28;;;2.00;;
66421;SDS011;53228;51.380;0.098;2022-08-01T00:45:34;5.13;;;2.13;;
66421;SDS011;53228;51.380;0.098;2022-08-01T00:48:02;4.13;;;2.08;;
66421;SDS011;53228;51.380;0.098;2022-08-01T00:50:30;6.15;;;2.25;;
66421;SDS011;53228;51.380;0.098;2022-08-01T00:52:58;3.05;;;2.15;;
66421;SDS011;53228;51.380;0.098;2022-08-01T00:55:27;2.80;;;2.22;;
66421;SDS011;53228;51.380;0.098;2022-08-01T00:57:55;2.65;;;2.10;;
66421;SDS011;53228;51.380;0.098;2022-08-01T01:00:31;2.75;;;2.28;;
66421;SDS011;53228;51.380;0.098;2022-08-01T01:03:19;3.15;;;2.00;;
66421;SDS011;53228;51.380;0.098;2022-08-01T01:08:43;3.75;;;2.10;;
66421;SDS011;53228;51.380;0.098;2022-08-01T01:11:20;4.25;;;2.45;;
66421;SDS011;53228;51.380;0.098;2022-08-01T01:16:24;5.78;;;2.67;;
66421;SDS011;53228;51.380;0.098;2022-08-01T01:18:54;3.20;;;2.55;;
66421;SDS011;53228;51.380;0.098;2022-08-01T01:21:42;4.00;;;2.45;;
66421;SDS011;53228;51.380;0.098;2022-08-01T01:30:03;4.88;;;2.30;;
66421;SDS011;53228;51.380;0.098;2022-08-01T01:32:32;5.55;;;2.22;;
66421;SDS011;53228;51.380;0.098;2022-08-01T01:35:08;2.90;;;1.83;;
66421;SDS011;53228;51.380;0.098;2022-08-01T01:37:41;2.78;;;2.20;;
66421;SDS011;53228;51.380;0.098;2022-08-01T01:40:11;4.05;;;2.20;;
66421;SDS011;53228;51.380;0.098;2022-08-01T01:42:41;4.00;;;1.92;;
66421;SDS011;53228;51.380;0.098;2022-08-01T01:45:09;2.33;;;2.13;;
66421;SDS011;53228;51.380;0.098;2022-08-01T01:47:38;2.88;;;1.90;;
66421;SDS011;53228;51.380;0.098;2022-08-01T01:50:09;3.15;;;2.10;;
66421;SDS011;53228;51.380;0.098;2022-08-01T01:52:39;2.92;;;1.65;;
66421;SDS011;53228;51.380;0.098;2022-08-01T01:55:09;2.58;;;2.05;;
66421;SDS011;53228;51.380;0.098;2022-08-01T01:57:39;3.83;;;1.70;;
66421;SDS011;53228;51.380;0.098;2022-08-01T02:00:09;1.98;;;1.80;;
66421;SDS011;53228;51.380;0.098;2022-08-01T02:02:39;2.75;;;1.88;;
66421;SDS011;53228;51.380;0.098;2022-08-01T02:05:10;4.30;;;2.08;;
66421;SDS011;53228;51.380;0.098;2022-08-01T02:07:39;5.70;;;1.75;;
66421;SDS011;53228;51.380;0.098;2022-08-01T02:10:08;2.40;;;1.90;;
66421;SDS011;53228;51.380;0.098;2022-08-01T02:12:39;4.10;;;1.60;;
66421;SDS011;53228;51.380;0.098;2022-08-01T02:15:09;2.20;;;2.00;;
66421;SDS011;53228;51.380;0.098;2022-08-01T02:17:39;2.53;;;1.75;;
66421;SDS011;53228;51.380;0.098;2022-08-01T02:20:09;3.72;;;1.70;;
66421;SDS011;53228;51.380;0.098;2022-08-01T02:22:40;3.10;;;2.13;;
66421;SDS011;53228;51.380;0.098;2022-08-01T02:27:50;3.38;;;2.08;;
66421;SDS011;53228;51.380;0.098;2022-08-01T02:30:19;2.67;;;1.85;;
66421;SDS011;53228;51.380;0.098;2022-08-01T02:32:48;4.80;;;2.22;;
66421;SDS011;53228;51.380;0.098;2022-08-01T02:35:20;2.30;;;2.03;;
66421;SDS011;53228;51.380;0.098;2022-08-01T02:37:50;1.85;;;1.67;;
66421;SDS011;53228;51.380;0.098;2022-08-01T02:40:19;3.72;;;2.00;;
66421;SDS011;53228;51.380;0.098;2022-08-01T02:42:49;2.55;;;1.90;;
66421;SDS011;53228;51.380;0.098;2022-08-01T02:45:17;2.63;;;2.10;;
66421;SDS011;53228;51.380;0.098;2022-08-01T02:47:47;2.53;;;1.70;;
66421;SDS011;53228;51.380;0.098;2022-08-01T02:50:16;3.00;;;2.00;;
66421;SDS011;53228;51.380;0.098;2022-08-01T02:52:46;3.72;;;1.83;;
66421;SDS011;53228;51.380;0.098;2022-08-01T02:55:16;4.38;;;2.10;;
66421;SDS011;53228;51.380;0.098;2022-08-01T02:57:45;2.40;;;2.03;;
66421;SDS011;53228;51.380;0.098;2022-08-01T03:00:22;3.40;;;1.92;;
66421;SDS011;53228;51.380;0.098;2022-08-01T03:02:51;3.35;;;1.77;;
66421;SDS011;53228;51.380;0.098;2022-08-01T03:05:22;3.10;;;1.60;;
66421;SDS011;53228;51.380;0.098;2022-08-01T03:07:51;2.28;;;1.92;;
66421;SDS011;53228;51.380;0.098;2022-08-01T03:10:20;3.75;;;2.13;;
66421;SDS011;53228;51.380;0.098;2022-08-01T03:12:49;3.17;;;2.17;;
66421;SDS011;53228;51.380;0.098;2022-08-01T03:15:17;3.60;;;2.05;;
66421;SDS011;53228;51.380;0.098;2022-08-01T03:17:46;2.40;;;2.05;;
66421;SDS011;53228;51.380;0.098;2022-08-01T03:20:16;2.33;;;1.83;;
66421;SDS011;53228;51.380;0.098;2022-08-01T03:22:44;2.40;;;1.80;;
66421;SDS011;53228;51.380;0.098;2022-08-01T03:25:13;2.78;;;1.98;;
66421;SDS011;53228;51.380;0.098;2022-08-01T03:27:43;2.30;;;1.90;;
66421;SDS011;53228;51.380;0.098;2022-08-01T03:30:13;4.65;;;2.50;;
66421;SDS011;53228;51.380;0.098;2022-08-01T03:32:42;4.88;;;1.90;;
66421;SDS011;53228;51.380;0.098;2022-08-01T03:35:10;2.30;;;2.03;;
66421;SDS011;53228;51.380;0.098;2022-08-01T03:37:46;3.78;;;2.05;;
66421;SDS011;53228;51.380;0.098;2022-08-01T03:43:05;3.80;;;2.40;;
66421;SDS011;53228;51.380;0.098;2022-08-01T03:45:34;4.45;;;2.15;;
66421;SDS011;53228;51.380;0.098;2022-08-01T03:48:05;4.18;;;2.58;;
66421;SDS011;53228;51.380;0.098;2022-08-01T03:50:34;2.67;;;1.98;;
66421;SDS011;53228;51.380;0.098;2022-08-01T03:53:03;4.40;;;2.17;;
66421;SDS011;53228;51.380;0.098;2022-08-01T03:55:32;9.90;;;2.45;;
66421;SDS011;53228;51.380;0.098;2022-08-01T03:58:00;3.25;;;2.50;;
66421;SDS011;53228;51.380;0.098;2022-08-01T04:00:38;5.25;;;2.20;;
66421;SDS011;53228;51.380;0.098;2022-08-01T04:03:08;5.43;;;2.72;;
66421;SDS011;53228;51.380;0.098;2022-08-01T04:05:36;3.50;;;2.40;;
66421;SDS011;53228;51.380;0.098;2022-08-01T04:08:04;4.88;;;2.92;;
66421;SDS011;53228;51.380;0.098;2022-08-01T04:10:33;5.38;;;2.47;;
66421;SDS011;53228;51.380;0.098;2022-08-01T04:13:01;6.43;;;2.92;;
66421;SDS011;53228;51.380;0.098;2022-08-01T04:15:29;5.57;;;2.90;;
66421;SDS011;53228;51.380;0.098;2022-08-01T04:17:57;5.18;;;2.40;;
66421;SDS011;53228;51.380;0.098;2022-08-01T04:20:26;4.55;;;2.80;;
66421;SDS011;53228;51.380;0.098;2022-08-01T04:22:54;4.00;;;2.55;;
66421;SDS011;53228;51.380;0.098;2022-08-01T04:25:25;5.35;;;3.03;;
66421;SDS011;53228;51.380;0.098;2022-08-01T04:27:54;8.18;;;3.10;;
66421;SDS011;53228;51.380;0.098;2022-08-01T04:30:23;4.18;;;3.03;;
66421;SDS011;53228;51.380;0.098;2022-08-01T04:32:54;4.07;;;3.13;;
66421;SDS011;53228;51.380;0.098;2022-08-01T04:35:22;6.18;;;2.78;;
66421;SDS011;53228;51.380;0.098;2022-08-01T04:38:12;6.63;;;3.03;;
66421;SDS011;53228;51.380;0.098;2022-08-01T04:40:44;6.85;;;3.13;;
66421;SDS011;53228;51.380;0.098;2022-08-01T04:43:12;4.07;;;2.60;;
66421;SDS011;53228;51.380;0.098;2022-08-01T04:45:42;5.97;;;3.05;;
66421;SDS011;53228;51.380;0.098;2022-08-01T04:48:10;4.30;;;2.70;;
66421;SDS011;53228;51.380;0.098;2022-08-01T04:50:40;6.82;;;3.08;;
66421;SDS011;53228;51.380;0.098;2022-08-01T04:53:15;2.90;;;2.50;;
66421;SDS011;53228;51.380;0.098;2022-08-01T04:55:44;5.53;;;3.20;;
66421;SDS011;53228;51.380;0.098;2022-08-01T04:58:14;4.95;;;2.90;;
66421;SDS011;53228;51.380;0.098;2022-08-01T05:00:45;4.72;;;2.80;;
66421;SDS011;53228;51.380;0.098;2022-08-01T05:03:14;4.40;;;3.08;;
66421;SDS011;53228;51.380;0.098;2022-08-01T05:05:42;4.28;;;3.03;;
66421;SDS011;53228;51.380;0.098;2022-08-01T05:08:10;9.27;;;3.38;;
66421;SDS011;53228;51.380;0.098;2022-08-01T05:10:38;3.67;;;2.55;;
66421;SDS011;53228;51.380;0.098;2022-08-01T05:13:06;5.50;;;3.70;;
66421;SDS011;53228;51.380;0.098;2022-08-01T05:15:34;4.80;;;3.25;;
66421;SDS011;53228;51.380;0.098;2022-08-01T05:18:03;7.00;;;3.28;;
66421;SDS011;53228;51.380;0.098;2022-08-01T05:20:34;6.35;;;3.40;;
66421;SDS011;53228;51.380;0.098;2022-08-01T05:23:04;6.47;;;3.63;;
66421;SDS011;53228;51.380;0.098;2022-08-01T05:25:36;5.75;;;2.88;;
66421;SDS011;53228;51.380;0.098;2022-08-01T05:28:24;6.25;;;3.15;;
66421;SDS011;53228;51.380;0.098;2022-08-01T05:30:52;6.05;;;3.05;;
66421;SDS011;53228;51.380;0.098;2022-08-01T05:33:22;5.07;;;3.28;;
66421;SDS011;53228;51.380;0.098;2022-08-01T05:35:51;3.50;;;2.85;;
66421;SDS011;53228;51.380;0.098;2022-08-01T05:38:19;4.68;;;2.90;;
66421;SDS011;53228;51.380;0.098;2022-08-01T05:40:47;3.45;;;2.80;;
66421;SDS011;53228;51.380;0.098;2022-08-01T05:43:14;4.80;;;2.80;;
66421;SDS011;53228;51.380;0.098;2022-08-01T05:45:42;6.50;;;2.90;;
66421;SDS011;53228;51.380;0.098;2022-08-01T05:48:11;4.13;;;2.90;;
66421;SDS011;53228;51.380;0.098;2022-08-01T05:50:39;5.82;;;3.20;;
66421;SDS011;53228;51.380;0.098;2022-08-01T05:53:07;5.78;;;2.90;;
66421;SDS011;53228;51.380;0.098;2022-08-01T05:55:34;5.18;;;2.88;;
66421;SDS011;53228;51.380;0.098;2022-08-01T05:58:02;5.57;;;3.42;;
66421;SDS011;53228;51.380;0.098;2022-08-01T06:00:30;6.57;;;3.38;;
66421;SDS011;53228;51.380;0.098;2022-08-01T06:02:58;4.63;;;2.92;;
66421;SDS011;53228;51.380;0.098;2022-08-01T06:05:25;6.03;;;3.20;;
66421;SDS011;53228;51.380;0.098;2022-08-01T06:07:53;5.75;;;2.60;;
66421;SDS011;53228;51.380;0.098;2022-08-01T06:10:21;6.57;;;3.22;;
66421;SDS011;53228;51.380;0.098;2022-08-01T06:12:49;5.32;;;3.10;;
66421;SDS011;53228;51.380;0.098;2022-08-01T06:15:17;8.57;;;3.10;;
66421;SDS011;53228;51.380;0.098;2022-08-01T06:17:44;7.10;;;3.42;;
66421;SDS011;53228;51.380;0.098;2022-08-01T06:20:12;5.95;;;2.90;;
66421;SDS011;53228;51.380;0.098;2022-08-01T06:22:39;6.50;;;3.13;;
66421;SDS011;53228;51.380;0.098;2022-08-01T06:25:07;4.63;;;2.95;;
66421;SDS011;53228;51.380;0.098;2022-08-01T06:27:36;4.13;;;2.85;;
66421;SDS011;53228;51.380;0.098;2022-08-01T06:30:04;4.78;;;3.25;;
66421;SDS011;53228;51.380;0.098;2022-08-01T06:32:34;4.90;;;3.00;;
66421;SDS011;53228;51.380;0.098;2022-08-01T06:35:02;4.88;;;3.28;;
66421;SDS011;53228;51.380;0.098;2022-08-01T06:37:31;5.10;;;3.15;;
66421;SDS011;53228;51.380;0.098;2022-08-01T06:40:03;5.75;;;3.00;;
66421;SDS011;53228;51.380;0.098;2022-08-01T06:42:43;3.78;;;2.92;;
66421;SDS011;53228;51.380;0.098;2022-08-01T06:45:13;5.90;;;2.70;;
66421;SDS011;53228;51.380;0.098;2022-08-01T06:47:44;6.30;;;3.38;;
66421;SDS011;53228;51.380;0.098;2022-08-01T06:50:16;4.75;;;2.88;;
66421;SDS011;53228;51.380;0.098;2022-08-01T06:52:45;5.40;;;2.70;;
66421;SDS011;53228;51.380;0.098;2022-08-01T06:55:13;4.15;;;3.10;;
66421;SDS011;53228;51.380;0.098;2022-08-01T06:57:59;4.38;;;3.00;;
66421;SDS011;53228;51.380;0.098;2022-08-01T07:00:27;2.72;;;2.35;;
66421;SDS011;53228;51.380;0.098;2022-08-01T07:02:56;2.90;;;2.60;;
66421;SDS011;53228;51.380;0.098;2022-08-01T07:05:25;5.35;;;2.67;;
66421;SDS011;53228;51.380;0.098;2022-08-01T07:07:53;7.07;;;2.95;;
66421;SDS011;53228;51.380;0.098;2022-08-01T07:10:21;6.75;;;2.63;;
66421;SDS011;53228;51.380;0.098;2022-08-01T07:12:49;2.72;;;2.53;;
66421;SDS011;53228;51.380;0.098;2022-08-01T07:15:17;3.05;;;2.70;;
66421;SDS011;53228;51.380;0.098;2022-08-01T07:17:47;5.30;;;2.75;;
66421;SDS011;53228;51.380;0.098;2022-08-01T07:20:15;3.80;;;2.60;;
66421;SDS011;53228;51.380;0.098;2022-08-01T07:22:42;3.75;;;2.72;;
66421;SDS011;53228;51.380;0.098;2022-08-01T07:25:15;9.10;;;2.95;;
66421;SDS011;53228;51.380;0.098;2022-08-01T07:27:43;4.22;;;2.80;;
66421;SDS011;53228;51.380;0.098;2022-08-01T07:30:12;5.00;;;2.97;;
66421;SDS011;53228;51.380;0.098;2022-08-01T07:32:41;3.85;;;2.58;;
66421;SDS011;53228;51.380;0.098;2022-08-01T07:35:09;6.85;;;3.00;;
66421;SDS011;53228;51.380;0.098;2022-08-01T07:37:38;5.32;;;2.80;;
66421;SDS011;53228;51.380;0.098;2022-08-01T07:40:14;3.65;;;2.47;;
66421;SDS011;53228;51.380;0.098;2022-08-01T07:42:42;6.07;;;2.97;;
66421;SDS011;53228;51.380;0.098;2022-08-01T07:45:11;5.80;;;2.80;;
66421;SDS011;53228;51.380;0.098;2022-08-01T07:47:40;6.63;;;2.88;;
66421;SDS011;53228;51.380;0.098;2022-08-01T07:50:08;3.33;;;2.53;;
66421;SDS011;53228;51.380;0.098;2022-08-01T07:52:36;5.55;;;2.45;;
66421;SDS011;53228;51.380;0.098;2022-08-01T07:55:04;5.43;;;2.63;;
66421;SDS011;53228;51.380;0.098;2022-08-01T07:57:33;4.90;;;2.58;;
66421;SDS011;53228;51.380;0.098;2022-08-01T08:00:02;4.43;;;2.08;;
66421;SDS011;53228;51.380;0.098;2022-08-01T08:02:32;2.58;;;2.25;;
66421;SDS011;53228;51.380;0.098;2022-08-01T08:05:00;5.10;;;1.88;;
66421;SDS011;53228;51.380;0.098;2022-08-01T08:07:27;4.40;;;2.40;;
66421;SDS011;53228;51.380;0.098;2022-08-01T08:09:55;7.88;;;2.50;;
66421;SDS011;53228;51.380;0.098;2022-08-01T08:12:27;3.63;;;2.30;;
66421;SDS011;53228;51.380;0.098;2022-08-01T08:14:56;3.22;;;1.90;;
66421;SDS011;53228;51.380;0.098;2022-08-01T08:17:25;4.10;;;1.95;;
66421;SDS011;53228;51.380;0.098;2022-08-01T08:19:53;3.88;;;2.28;;
66421;SDS011;53228;51.380;0.098;2022-08-01T08:22:20;3.80;;;2.10;;
66421;SDS011;53228;51.380;0.098;2022-08-01T08:24:48;4.70;;;2.17;;
66421;SDS011;53228;51.380;0.098;2022-08-01T08:27:15;3.72;;;1.88;;
66421;SDS011;53228;51.380;0.098;2022-08-01T08:29:45;4.50;;;1.98;;
66421;SDS011;53228;51.380;0.098;2022-08-01T08:32:12;3.20;;;1.95;;
66421;SDS011;53228;51.380;0.098;2022-08-01T08:34:40;2.65;;;1.88;;
66421;SDS011;53228;51.380;0.098;2022-08-01T08:37:09;2.53;;;1.60;;
66421;SDS011;53228;51.380;0.098;2022-08-01T08:39:37;3.97;;;2.42;;
66421;SDS011;53228;51.380;0.098;2022-08-01T08:42:09;3.53;;;2.10;;
66421;SDS011;53228;51.380;0.098;2022-08-01T08:44:38;4.18;;;2.05;;
66421;SDS011;53228;51.380;0.098;2022-08-01T08:47:13;5.85;;;2.08;;
66421;SDS011;53228;51.380;0.098;2022-08-01T08:49:47;2.20;;;1.63;;
66421;SDS011;53228;51.380;0.098;2022-08-01T08:52:21;4.85;;;2.13;;
66421;SDS011;53228;51.380;0.098;2022-08-01T08:54:50;8.07;;;2.08;;
66421;SDS011;53228;51.380;0.098;2022-08-01T08:57:19;3.15;;;1.90;;
66421;SDS011;53228;51.380;0.098;2022-08-01T08:59:48;8.60;;;2.33;;
66421;SDS011;53228;51.380;0.098;2022-08-01T09:02:18;4.28;;;1.80;;
66421;SDS011;53228;51.380;0.098;2022-08-01T09:04:48;2.42;;;1.85;;
66421;SDS011;53228;51.380;0.098;2022-08-01T09:07:17;3.90;;;1.80;;
66421;SDS011;53228;51.380;0.098;2022-08-01T09:09:45;3.53;;;1.70;;
66421;SDS011;53228;51.380;0.098;2022-08-01T09:12:16;3.88;;;1.80;;
66421;SDS011;53228;51.380;0.098;2022-08-01T09:14:45;4.03;;;1.83;;
66421;SDS011;53228;51.380;0.098;2022-08-01T09:17:14;2.90;;;1.85;;
66421;SDS011;53228;51.380;0.098;2022-08-01T09:19:44;2.50;;;1.70;;
66421;SDS011;53228;51.380;0.098;2022-08-01T09:22:21;3.67;;;1.73;;
66421;SDS011;53228;51.380;0.098;2022-08-01T09:24:56;2.45;;;1.77;;
66421;SDS011;53228;51.380;0.098;2022-08-01T09:27:38;1.95;;;1.70;;
66421;SDS011;53228;51.380;0.098;2022-08-01T09:30:14;2.20;;;1.80;;
66421;SDS011;53228;51.380;0.098;2022-08-01T09:32:53;1.50;;;1.40;;
66421;SDS011;53228;51.380;0.098;2022-08-01T09:35:37;2.65;;;1.80;;
66421;SDS011;53228;51.380;0.098;2022-08-01T09:38:18;3.90;;;1.73;;
66421;SDS011;53228;51.380;0.098;2022-08-01T09:40:59;6.70;;;1.38;;
66421;SDS011;53228;51.380;0.098;2022-08-01T09:43:29;1.60;;;1.50;;
66421;SDS011;53228;51.380;0.098;2022-08-01T09:45:59;3.80;;;1.58;;
66421;SDS011;53228;51.380;0.098;2022-08-01T09:48:31;1.27;;;1.15;;
66421;SDS011;53228;51.380;0.098;2022-08-01T09:50:59;2.20;;;1.23;;
66421;SDS011;53228;51.380;0.098;2022-08-01T09:53:42;2.13;;;1.70;;
66421;SDS011;53228;51.380;0.098;2022-08-01T09:56:18;2.88;;;1.50;;
66421;SDS011;53228;51.380;0.098;2022-08-01T09:58:48;4.30;;;1.75;;
66421;SDS011;53228;51.380;0.098;2022-08-01T10:01:24;1.40;;;1.30;;
66421;SDS011;53228;51.380;0.098;2022-08-01T10:04:13;3.38;;;1.40;;
66421;SDS011;53228;51.380;0.098;2022-08-01T10:06:43;3.00;;;1.58;;
66421;SDS011;53228;51.380;0.098;2022-08-01T10:09:22;7.05;;;1.83;;
66421;SDS011;53228;51.380;0.098;2022-08-01T10:12:07;4.72;;;2.15;;
66421;SDS011;53228;51.380;0.098;2022-08-01T10:14:42;3.10;;;1.60;;
66421;SDS011;53228;51.380;0.098;2022-08-01T10:17:16;3.85;;;1.60;;
66421;SDS011;53228;51.380;0.098;2022-08-01T10:19:46;3.97;;;1.65;;
66421;SDS011;53228;51.380;0.098;2022-08-01T10:22:18;3.00;;;1.48;;
66421;SDS011;53228;51.380;0.098;2022-08-01T10:24:47;2.70;;;1.50;;
66421;SDS011;53228;51.380;0.098;2022-08-01T10:27:16;1.95;;;1.40;;
66421;SDS011;53228;51.380;0.098;2022-08-01T10:30:02;1.77;;;1.67;;
66421;SDS011;53228;51.380;0.098;2022-08-01T10:32:49;3.15;;;2.03;;
66421;SDS011;53228;51.380;0.098;2022-08-01T10:35:21;3.15;;;2.22;;
66421;SDS011;53228;51.380;0.098;2022-08-01T10:38:09;4.15;;;2.28;;
66421;SDS011;53228;51.380;0.098;2022-08-01T10:40:40;3.97;;;1.83;;
66421;SDS011;53228;51.380;0.098;2022-08-01T10:45:37;3.70;;;1.83;;
66421;SDS011;53228;51.380;0.098;2022-08-01T10:48:09;2.10;;;1.50;;
66421;SDS011;53228;51.380;0.098;2022-08-01T10:50:48;2.97;;;1.50;;
66421;SDS011;53228;51.380;0.098;2022-08-01T10:53:23;3.00;;;1.33;;
66421;SDS011;53228;51.380;0.098;2022-08-01T10:56:08;2.35;;;1.40;;
66421;SDS011;53228;51.380;0.098;2022-08-01T10:58:41;1.40;;;1.30;;
66421;SDS011;53228;51.380;0.098;2022-08-01T11:01:21;2.58;;;1.30;;
66421;SDS011;53228;51.380;0.098;2022-08-01T11:04:08;1.65;;;1.40;;
66421;SDS011;53228;51.380;0.098;2022-08-01T11:06:50;3.53;;;1.40;;
66421;SDS011;53228;51.380;0.098;2022-08-01T11:09:29;3.85;;;1.67;;
66421;SDS011;53228;51.380;0.098;2022-08-01T11:12:10;1.33;;;1.20;;
66421;SDS011;53228;51.380;0.098;2022-08-01T11:17:35;3.63;;;1.10;;
66421;SDS011;53228;51.380;0.098;2022-08-01T11:28:26;1.80;;;1.25;;
66421;SDS011;53228;51.380;0.098;2022-08-01T11:38:45;4.22;;;1.23;;
66421;SDS011;53228;51.380;0.098;2022-08-01T11:41:17;1.83;;;1.30;;
66421;SDS011;53228;51.380;0.098;2022-08-01T11:44:06;3.85;;;2.42;;
66421;SDS011;53228;51.380;0.098;2022-08-01T11:46:54;3.20;;;1.50;;
66421;SDS011;53228;51.380;0.098;2022-08-01T11:54:53;3.58;;;1.30;;
66421;SDS011;53228;51.380;0.098;2022-08-01T11:57:24;1.05;;;0.95;;
66421;SDS011;53228;51.380;0.098;2022-08-01T12:02:44;4.20;;;1.52;;
66421;SDS011;53228;51.380;0.098;2022-08-01T12:05:14;3.25;;;1.25;;
66421;SDS011;53228;51.380;0.098;2022-08-01T12:07:51;3.15;;;1.02;;
66421;SDS011;53228;51.380;0.098;2022-08-01T12:10:20;2.67;;;1.23;;
66421;SDS011;53228;51.380;0.098;2022-08-01T12:12:54;3.00;;;1.27;;
66421;SDS011;53228;51.380;0.098;2022-08-01T12:15:24;1.25;;;0.93;;
66421;SDS011;53228;51.380;0.098;2022-08-01T12:17:56;1.40;;;1.30;;
66421;SDS011;53228;51.380;0.098;2022-08-01T12:20:28;6.35;;;1.52;;
66421;SDS011;53228;51.380;0.098;2022-08-01T12:22:59;4.10;;;1.20;;
66421;SDS011;53228;51.380;0.098;2022-08-01T12:25:29;1.77;;;1.00;;
66421;SDS011;53228;51.380;0.098;2022-08-01T12:28:00;1.40;;;1.00;;
66421;SDS011;53228;51.380;0.098;2022-08-01T12:30:32;1.67;;;1.15;;
66421;SDS011;53228;51.380;0.098;2022-08-01T12:33:04;1.95;;;1.13;;
66421;SDS011;53228;51.380;0.098;2022-08-01T12:35:34;1.17;;;1.13;;
66421;SDS011;53228;51.380;0.098;2022-08-01T12:38:07;1.20;;;1.10;;
66421;SDS011;53228;51.380;0.098;2022-08-01T12:40:42;1.48;;;1.38;;
66421;SDS011;53228;51.380;0.098;2022-08-01T12:43:15;1.77;;;1.30;;
66421;SDS011;53228;51.380;0.098;2022-08-01T12:45:56;2.85;;;1.30;;
66421;SDS011;53228;51.380;0.098;2022-08-01T12:48:27;2.80;;;1.35;;
66421;SDS011;53228;51.380;0.098;2022-08-01T12:50:57;1.95;;;1.40;;
66421;SDS011;53228;51.380;0.098;2022-08-01T12:53:33;2.30;;;1.10;;
66421;SDS011;53228;51.380;0.098;2022-08-01T12:56:07;2.17;;;1.48;;
66421;SDS011;53228;51.380;0.098;2022-08-01T12:58:37;3.70;;;1.52;;
66421;SDS011;53228;51.380;0.098;2022-08-01T13:01:07;4.03;;;1.27;;
66421;SDS011;53228;51.380;0.098;2022-08-01T13:03:38;1.55;;;1.40;;
66421;SDS011;53228;51.380;0.098;2022-08-01T13:06:12;2.63;;;1.00;;
66421;SDS011;53228;51.380;0.098;2022-08-01T13:08:44;1.65;;;1.50;;
66421;SDS011;53228;51.380;0.098;2022-08-01T13:11:13;1.45;;;1.30;;
66421;SDS011;53228;51.380;0.098;2022-08-01T13:13:44;3.05;;;1.35;;
66421;SDS011;53228;51.380;0.098;2022-08-01T13:16:24;1.80;;;1.15;;
66421;SDS011;53228;51.380;0.098;2022-08-01T13:19:13;3.80;;;1.20;;
66421;SDS011;53228;51.380;0.098;2022-08-01T13:21:52;1.20;;;1.10;;
66421;SDS011;53228;51.380;0.098;2022-08-01T13:24:25;1.95;;;1.50;;
66421;SDS011;53228;51.380;0.098;2022-08-01T13:26:57;2.10;;;1.30;;
66421;SDS011;53228;51.380;0.098;2022-08-01T13:35:03;3.00;;;1.25;;
66421;SDS011;53228;51.380;0.098;2022-08-01T13:37:32;2.17;;;1.30;;
66421;SDS011;53228;51.380;0.098;2022-08-01T13:40:00;1.40;;;1.27;;
66421;SDS011;53228;51.380;0.098;2022-08-01T13:42:29;1.25;;;1.13;;
66421;SDS011;53228;51.380;0.098;2022-08-01T13:44:57;1.63;;;1.27;;
66421;SDS011;53228;51.380;0.098;2022-08-01T13:47:24;3.15;;;1.40;;
66421;SDS011;53228;51.380;0.098;2022-08-01T13:50:01;2.55;;;1.27;;
66421;SDS011;53228;51.380;0.098;2022-08-01T13:52:30;1.17;;;1.08;;
66421;SDS011;53228;51.380;0.098;2022-08-01T13:54:59;5.32;;;1.05;;
66421;SDS011;53228;51.380;0.098;2022-08-01T13:57:27;1.27;;;0.82;;
66421;SDS011;53228;51.380;0.098;2022-08-01T14:00:04;2.83;;;1.33;;
66421;SDS011;53228;51.380;0.098;2022-08-01T14:02:40;1.60;;;1.42;;
66421;SDS011;53228;51.380;0.098;2022-08-01T14:05:08;2.03;;;1.45;;
66421;SDS011;53228;51.380;0.098;2022-08-01T14:07:35;2.25;;;1.10;;
66421;SDS011;53228;51.380;0.098;2022-08-01T14:10:04;3.33;;;1.25;;
66421;SDS011;53228;51.380;0.098;2022-08-01T14:12:46;2.40;;;1.27;;
66421;SDS011;53228;51.380;0.098;2022-08-01T14:15:15;1.35;;;1.10;;
66421;SDS011;53228;51.380;0.098;2022-08-01T14:18:03;1.77;;;1.30;;
66421;SDS011;53228;51.380;0.098;2022-08-01T14:20:34;1.20;;;1.10;;
66421;SDS011;53228;51.380;0.098;2022-08-01T14:23:04;2.85;;;0.90;;
66421;SDS011;53228;51.380;0.098;2022-08-01T14:25:39;1.88;;;1.30;;
66421;SDS011;53228;51.380;0.098;2022-08-01T14:28:28;0.82;;;0.80;;
66421;SDS011;53228;51.380;0.098;2022-08-01T14:30:57;4.07;;;1.20;;
66421;SDS011;53228;51.380;0.098;2022-08-01T14:33:25;2.70;;;1.20;;
66421;SDS011;53228;51.380;0.098;2022-08-01T14:35:53;2.38;;;1.17;;
66421;SDS011;53228;51.380;0.098;2022-08-01T14:38:33;1.67;;;1.02;;
66421;SDS011;53228;51.380;0.098;2022-08-01T14:41:01;1.42;;;1.10;;
66421;SDS011;53228;51.380;0.098;2022-08-01T14:43:30;5.05;;;1.60;;
66421;SDS011;53228;51.380;0.098;2022-08-01T14:46:00;4.82;;;1.80;;
66421;SDS011;53228;51.380;0.098;2022-08-01T14:48:29;3.13;;;1.20;;
66421;SDS011;53228;51.380;0.098;2022-08-01T14:50:58;2.50;;;1.20;;
66421;SDS011;53228;51.380;0.098;2022-08-01T14:53:30;3.53;;;1.38;;
66421;SDS011;53228;51.380;0.098;2022-08-01T14:56:05;1.25;;;0.95;;
66421;SDS011;53228;51.380;0.098;2022-08-01T14:58:33;2.65;;;1.30;;
66421;SDS011;53228;51.380;0.098;2022-08-01T15:01:01;2.40;;;1.20;;
66421;SDS011;53228;51.380;0.098;2022-08-01T15:03:31;1.83;;;1.13;;
66421;SDS011;53228;51.380;0.098;2022-08-01T15:05:59;2.00;;;1.23;;
66421;SDS011;53228;51.380;0.098;2022-08-01T15:08:27;1.10;;;1.00;;
66421;SDS011;53228;51.380;0.098;2022-08-01T15:10:56;1.92;;;1.05;;
66421;SDS011;53228;51.380;0.098;2022-08-01T15:13:24;1.35;;;1.25;;
66421;SDS011;53228;51.380;0.098;2022-08-01T15:15:52;3.53;;;1.08;;
66421;SDS011;53228;51.380;0.098;2022-08-01T15:18:19;1.95;;;1.10;;
66421;SDS011;53228;51.380;0.098;2022-08-01T15:20:47;1.25;;;1.10;;
66421;SDS011;53228;51.380;0.098;2022-08-01T15:23:14;3.03;;;1.15;;
66421;SDS011;53228;51.380;0.098;2022-08-01T15:25:42;1.48;;;1.25;;
66421;SDS011;53228;51.380;0.098;2022-08-01T15:28:10;1.33;;;1.05;;
66421;SDS011;53228;51.380;0.098;2022-08-01T15:30:39;3.65;;;2.03;;
66421;SDS011;53228;51.380;0.098;2022-08-01T15:33:06;1.60;;;1.38;;
66421;SDS011;53228;51.380;0.098;2022-08-01T15:35:34;3.17;;;1.75;;
66421;SDS011;53228;51.380;0.098;2022-08-01T15:38:02;3.40;;;1.20;;
66421;SDS011;53228;51.380;0.098;2022-08-01T15:40:29;2.22;;;1.60;;
66421;SDS011;53228;51.380;0.098;2022-08-01T15:43:01;7.97;;;1.75;;
66421;SDS011;53228;51.380;0.098;2022-08-01T15:45:29;1.88;;;1.70;;
66421;SDS011;53228;51.380;0.098;2022-08-01T15:48:15;2.78;;;1.55;;
66421;SDS011;53228;51.380;0.098;2022-08-01T15:50:43;4.32;;;1.58;;
66421;SDS011;53228;51.380;0.098;2022-08-01T15:53:11;3.03;;;1.90;;
66421;SDS011;53228;51.380;0.098;2022-08-01T15:55:39;4.40;;;2.13;;
66421;SDS011;53228;51.380;0.098;2022-08-01T15:58:14;1.67;;;1.55;;
66421;SDS011;53228;51.380;0.098;2022-08-01T16:00:42;2.13;;;1.63;;
66421;SDS011;53228;51.380;0.098;2022-08-01T16:03:10;2.70;;;1.58;;